createdAt,value
2024-03-13T00:00:08.557Z,19.40
2024-03-13T00:02:35.256Z,18.00
2024-03-13T00:05:03.483Z,21.30
2024-03-13T00:07:33.177Z,18.70
2024-03-13T00:09:59.947Z,20.40
2024-03-13T00:12:26.755Z,22.20
2024-03-13T00:14:53.437Z,23.50
2024-03-13T00:17:21.073Z,24.90
2024-03-13T00:19:49.150Z,27.80
2024-03-13T00:22:16.313Z,25.20
2024-03-13T00:24:43.165Z,26.70
2024-03-13T00:27:10.193Z,24.80
2024-03-13T00:29:36.851Z,17.00
2024-03-13T00:32:04.177Z,15.50
2024-03-13T00:34:30.952Z,16.20
2024-03-13T00:36:58.019Z,16.00
2024-03-13T00:39:24.744Z,16.70
2024-03-13T00:41:51.707Z,14.00
2024-03-13T00:44:18.456Z,13.00
2024-03-13T00:46:45.206Z,13.60
2024-03-13T00:49:12.095Z,12.80
2024-03-13T00:51:39.407Z,10.90
2024-03-13T00:54:06.568Z,11.70
2024-03-13T00:56:33.727Z,10.40
2024-03-13T00:59:01.163Z,11.20
2024-03-13T01:01:28.021Z,10.40
2024-03-13T01:03:54.893Z,9.70
2024-03-13T01:06:21.621Z,8.50
2024-03-13T01:08:48.356Z,9.60
2024-03-13T01:11:15.528Z,8.90
2024-03-13T01:13:42.673Z,9.20
2024-03-13T01:16:10.306Z,9.40
2024-03-13T01:18:37.281Z,9.70
2024-03-13T01:21:04.245Z,10.10
2024-03-13T01:23:31.072Z,10.10
2024-03-13T01:25:58.056Z,10.00
2024-03-13T01:28:24.906Z,9.90
2024-03-13T01:30:51.901Z,10.60
2024-03-13T01:33:18.612Z,11.10
2024-03-13T01:35:45.554Z,9.60
2024-03-13T01:38:12.296Z,10.90
2024-03-13T01:40:39.028Z,9.40
2024-03-13T01:43:06.007Z,8.30
2024-03-13T01:45:48.025Z,10.50
2024-03-13T01:48:14.944Z,9.20
2024-03-13T01:50:43.950Z,11.20
2024-03-13T01:53:10.748Z,10.50
2024-03-13T01:55:39.537Z,10.20
2024-03-13T01:58:06.369Z,10.20
2024-03-13T02:00:34.006Z,11.40
2024-03-13T02:03:01.359Z,9.70
2024-03-13T02:05:28.314Z,9.80
2024-03-13T02:07:55.774Z,12.50
2024-03-13T02:10:22.797Z,10.60
2024-03-13T02:13:10.883Z,11.70
2024-03-13T02:15:41.983Z,11.60
2024-03-13T02:18:27.516Z,12.10
2024-03-13T02:20:55.090Z,10.20
2024-03-13T02:23:22.760Z,9.80
2024-03-13T02:25:50.345Z,10.10
2024-03-13T02:28:17.086Z,9.90
2024-03-13T02:30:44.063Z,8.80
2024-03-13T02:33:11.217Z,7.80
2024-03-13T02:35:37.944Z,8.50
2024-03-13T02:38:05.409Z,7.60
2024-03-13T02:40:32.194Z,8.40
2024-03-13T02:42:59.057Z,9.10
2024-03-13T02:45:25.766Z,7.70
2024-03-13T02:47:52.665Z,8.60
2024-03-13T02:50:19.468Z,8.30
2024-03-13T02:52:46.224Z,6.80
2024-03-13T02:55:13.103Z,6.10
2024-03-13T02:57:40.129Z,6.20
2024-03-13T03:00:08.260Z,6.10
2024-03-13T03:02:35.575Z,5.40
2024-03-13T03:05:03.248Z,4.90
2024-03-13T03:07:32.238Z,5.00
2024-03-13T03:09:59.543Z,5.00
2024-03-13T03:12:27.713Z,4.40
2024-03-13T03:14:54.936Z,4.50
2024-03-13T03:17:25.332Z,4.50
2024-03-13T03:19:52.154Z,4.40
2024-03-13T03:22:19.792Z,5.80
2024-03-13T03:24:46.685Z,4.00
2024-03-13T03:27:13.814Z,3.60
2024-03-13T03:29:40.564Z,3.60
2024-03-13T03:32:07.438Z,3.60
2024-03-13T03:34:36.357Z,3.50
2024-03-13T03:37:03.237Z,3.60
2024-03-13T03:39:30.492Z,5.10
2024-03-13T03:41:57.803Z,4.20
2024-03-13T03:44:24.757Z,4.10
2024-03-13T03:46:51.532Z,4.30
2024-03-13T03:49:18.274Z,5.30
2024-03-13T03:51:45.145Z,6.30
2024-03-13T03:54:11.864Z,5.80
2024-03-13T03:56:38.709Z,6.10
2024-03-13T03:59:09.236Z,7.00
2024-03-13T04:01:37.687Z,7.50
2024-03-13T04:04:05.052Z,8.30
2024-03-13T04:06:32.766Z,7.70
2024-03-13T04:08:59.519Z,10.50
2024-03-13T04:11:26.415Z,7.90
2024-03-13T04:13:53.437Z,8.10
2024-03-13T04:16:20.358Z,6.80
2024-03-13T04:18:48.015Z,6.40
2024-03-13T04:21:14.787Z,8.20
2024-03-13T04:23:41.634Z,7.00
2024-03-13T04:26:08.494Z,8.50
2024-03-13T04:28:35.815Z,8.90
2024-03-13T04:31:02.713Z,9.30
2024-03-13T04:33:30.088Z,10.00
2024-03-13T04:35:56.837Z,10.00
2024-03-13T04:38:23.922Z,10.80
2024-03-13T04:40:50.742Z,11.00
2024-03-13T04:43:17.869Z,12.30
2024-03-13T04:45:44.713Z,11.80
2024-03-13T04:48:11.713Z,12.70
2024-03-13T04:50:38.575Z,11.20
2024-03-13T04:53:05.516Z,16.40
2024-03-13T04:55:32.647Z,12.90
2024-03-13T04:57:59.681Z,14.10
2024-03-13T05:00:26.830Z,14.80
2024-03-13T05:02:54.126Z,13.60
2024-03-13T05:05:21.009Z,14.50
2024-03-13T05:07:47.898Z,14.20
2024-03-13T05:10:15.055Z,12.70
2024-03-13T05:12:41.982Z,14.70
2024-03-13T05:15:09.137Z,11.00
2024-03-13T05:17:36.613Z,12.70
2024-03-13T05:20:04.534Z,11.40
2024-03-13T05:22:31.437Z,11.20
2024-03-13T05:24:58.256Z,13.00
2024-03-13T05:27:25.751Z,13.20
2024-03-13T05:29:53.334Z,17.10
2024-03-13T05:32:20.117Z,15.60
2024-03-13T05:34:46.937Z,17.00
2024-03-13T05:37:13.737Z,18.80
2024-03-13T05:39:41.008Z,18.50
2024-03-13T05:42:08.510Z,25.00
2024-03-13T05:44:35.341Z,24.80
2024-03-13T05:47:02.213Z,28.80
2024-03-13T05:49:29.143Z,32.10
2024-03-13T05:51:56.058Z,29.20
2024-03-13T05:54:22.887Z,29.90
2024-03-13T05:56:49.609Z,28.70
2024-03-13T05:59:16.374Z,31.30
2024-03-13T06:01:43.227Z,30.80
2024-03-13T06:04:10.083Z,32.00
2024-03-13T06:06:36.774Z,33.00
2024-03-13T06:09:03.418Z,36.20
2024-03-13T06:11:30.214Z,38.10
2024-03-13T06:13:57.147Z,39.20
2024-03-13T06:16:24.032Z,37.00
2024-03-13T06:18:51.010Z,37.10
2024-03-13T06:21:17.780Z,36.20
2024-03-13T06:23:44.507Z,39.10
2024-03-13T06:26:11.349Z,41.40
2024-03-13T06:28:38.074Z,41.40
2024-03-13T06:31:04.949Z,41.10
2024-03-13T06:33:31.669Z,40.40
2024-03-13T06:35:58.438Z,42.40
2024-03-13T06:38:25.270Z,40.10
2024-03-13T06:40:52.021Z,39.60
2024-03-13T06:43:19.198Z,43.20
2024-03-13T06:45:46.016Z,38.10
2024-03-13T06:48:13.757Z,36.90
2024-03-13T06:50:40.655Z,36.40
2024-03-13T06:53:07.509Z,37.70
2024-03-13T06:55:34.468Z,36.00
2024-03-13T06:58:01.639Z,35.40
2024-03-13T07:00:28.426Z,37.80
2024-03-13T07:02:55.845Z,36.70
2024-03-13T07:05:22.694Z,37.20
2024-03-13T07:07:49.548Z,33.80
2024-03-13T07:10:16.805Z,34.80
2024-03-13T07:12:43.765Z,31.10
2024-03-13T07:15:10.509Z,29.50
2024-03-13T07:17:40.451Z,26.40
2024-03-13T07:20:07.775Z,29.10
2024-03-13T07:22:34.623Z,26.90
2024-03-13T07:25:01.563Z,25.10
2024-03-13T07:27:28.356Z,27.00
2024-03-13T07:29:55.106Z,24.20
2024-03-13T07:32:21.770Z,22.60
2024-03-13T07:34:48.766Z,24.70
2024-03-13T07:37:15.604Z,26.30
2024-03-13T07:39:42.425Z,30.10
2024-03-13T07:42:09.188Z,26.80
2024-03-13T07:44:36.014Z,22.40
2024-03-13T07:47:02.873Z,24.40
2024-03-13T07:49:29.981Z,20.60
2024-03-13T07:51:56.932Z,21.60
2024-03-13T07:54:23.758Z,20.40
2024-03-13T07:56:50.481Z,19.40
2024-03-13T07:59:17.237Z,19.40
2024-03-13T08:01:44.197Z,18.90
2024-03-13T08:04:10.925Z,17.90
2024-03-13T09:06:49.775Z,12.00
2024-03-13T09:09:17.264Z,9.00
2024-03-13T09:11:44.627Z,8.10
2024-03-13T09:14:11.566Z,8.10
2024-03-13T09:16:38.429Z,9.90
2024-03-13T09:19:05.566Z,9.20
2024-03-13T09:21:32.788Z,10.50
2024-03-13T09:24:00.138Z,11.10
2024-03-13T09:26:27.546Z,16.90
2024-03-13T09:28:56.663Z,19.60
2024-03-13T09:31:23.931Z,11.90
2024-03-13T09:33:50.937Z,12.20
2024-03-13T09:36:17.960Z,19.80
2024-03-13T09:38:44.892Z,23.30
2024-03-13T09:41:13.579Z,21.10
2024-03-13T09:43:41.158Z,24.90
2024-03-13T09:46:08.315Z,16.30
2024-03-13T09:48:35.657Z,12.50
2024-03-13T09:51:07.917Z,9.40
2024-03-13T09:53:39.368Z,13.50
2024-03-13T09:56:06.572Z,9.00
2024-03-13T09:58:33.620Z,15.00
2024-03-13T10:01:04.232Z,9.40
2024-03-13T10:03:34.232Z,9.70
2024-03-13T10:06:08.528Z,6.30
2024-03-13T10:08:36.198Z,5.60
2024-03-13T10:11:03.784Z,6.90
2024-03-13T10:13:33.128Z,7.30
2024-03-13T10:16:03.101Z,5.60
2024-03-13T10:18:31.983Z,7.40
2024-03-13T10:21:08.272Z,4.70
2024-03-13T10:23:39.517Z,13.60
2024-03-13T10:26:07.343Z,19.60
2024-03-13T10:28:35.462Z,18.30
2024-03-13T10:31:05.323Z,5.40
2024-03-13T10:33:33.073Z,3.90
2024-03-13T10:36:00.023Z,5.20
2024-03-13T10:38:27.400Z,6.50
2024-03-13T10:40:54.114Z,10.00
2024-03-13T10:43:20.937Z,5.80
2024-03-13T10:45:50.659Z,7.60
2024-03-13T10:48:17.474Z,8.10
2024-03-13T10:50:44.178Z,4.00
2024-03-13T10:53:11.131Z,4.90
2024-03-13T10:55:41.036Z,4.30
2024-03-13T10:58:24.249Z,3.40
2024-03-13T11:00:51.407Z,5.30
2024-03-13T11:03:19.089Z,8.00
2024-03-13T11:05:46.378Z,9.90
2024-03-13T11:08:13.237Z,5.50
2024-03-13T11:10:40.190Z,8.40
2024-03-13T11:13:07.841Z,8.00
2024-03-13T11:15:47.359Z,10.20
2024-03-13T11:18:14.548Z,15.60
2024-03-13T11:21:01.735Z,18.70
2024-03-13T11:23:35.600Z,8.30
2024-03-13T11:26:07.207Z,5.90
2024-03-13T11:28:34.666Z,6.70
2024-03-13T11:31:02.383Z,9.70
2024-03-13T11:33:29.194Z,8.50
2024-03-13T11:35:57.351Z,10.40
2024-03-13T11:38:24.585Z,8.40
2024-03-13T11:40:52.760Z,8.80
2024-03-13T11:43:23.657Z,7.20
2024-03-13T11:48:19.256Z,7.50
2024-03-13T11:51:12.428Z,7.10
2024-03-13T11:53:39.639Z,5.60
2024-03-13T11:56:06.580Z,8.30
2024-03-13T11:58:35.269Z,7.50
2024-03-13T12:01:02.617Z,7.10
2024-03-13T12:03:39.514Z,6.60
2024-03-13T12:06:06.284Z,7.80
2024-03-13T12:08:33.101Z,9.00
2024-03-13T12:10:59.912Z,14.10
2024-03-13T12:13:26.801Z,14.30
2024-03-13T12:15:53.444Z,7.70
2024-03-13T12:18:20.347Z,9.50
2024-03-13T12:20:47.590Z,6.80
2024-03-13T12:23:15.055Z,6.90
2024-03-13T12:25:42.998Z,6.70
2024-03-13T12:28:14.436Z,8.10
2024-03-13T12:30:41.190Z,7.60
2024-03-13T12:33:08.475Z,7.50
2024-03-13T12:35:35.283Z,8.40
2024-03-13T12:38:01.908Z,7.80
2024-03-13T12:40:28.710Z,7.00
2024-03-13T12:42:55.805Z,10.90
2024-03-13T12:45:22.767Z,17.20
2024-03-13T12:47:50.018Z,8.70
2024-03-13T12:50:18.401Z,13.90
2024-03-13T12:52:49.129Z,10.90
2024-03-13T12:55:17.414Z,9.10
2024-03-13T12:57:44.233Z,9.00
2024-03-13T13:00:14.677Z,9.70
2024-03-13T13:02:46.247Z,12.50
2024-03-13T13:05:16.589Z,13.50
2024-03-13T13:07:49.555Z,9.00
2024-03-13T13:10:16.293Z,11.10
2024-03-13T13:12:43.085Z,12.40
2024-03-13T13:15:09.952Z,13.30
2024-03-13T13:17:36.949Z,13.20
2024-03-13T13:20:04.130Z,14.20
2024-03-13T13:22:30.747Z,17.70
2024-03-13T13:24:57.499Z,14.40
2024-03-13T13:27:24.261Z,15.90
2024-03-13T13:29:51.464Z,17.90
2024-03-13T13:32:18.301Z,14.80
2024-03-13T13:34:45.225Z,16.60
2024-03-13T13:37:12.025Z,17.60
2024-03-13T13:39:38.820Z,15.30
2024-03-13T13:42:06.122Z,20.60
2024-03-13T13:44:32.930Z,18.00
2024-03-13T13:46:59.771Z,16.40
2024-03-13T13:49:26.421Z,18.10
2024-03-13T13:51:53.180Z,26.00
2024-03-13T13:54:19.851Z,20.40
2024-03-13T13:56:47.322Z,18.30
2024-03-13T13:59:14.029Z,24.90
2024-03-13T14:01:40.665Z,20.00
2024-03-13T14:04:07.331Z,19.20
2024-03-13T14:06:34.348Z,20.60
2024-03-13T14:09:01.046Z,17.50
2024-03-13T14:11:27.902Z,22.20
2024-03-13T14:13:55.003Z,26.90
2024-03-13T14:16:21.793Z,22.40
2024-03-13T14:18:48.802Z,24.10
2024-03-13T14:21:15.815Z,26.40
2024-03-13T14:23:44.631Z,30.00
2024-03-13T14:26:11.614Z,29.40
2024-03-13T14:28:38.679Z,30.40
2024-03-13T14:31:11.077Z,26.10
2024-03-13T14:33:37.984Z,31.90
2024-03-13T14:36:05.580Z,28.50
2024-03-13T14:38:32.307Z,36.60
2024-03-13T14:40:59.085Z,28.40
2024-03-13T14:43:25.737Z,27.70
2024-03-13T14:45:52.388Z,26.60
2024-03-13T14:48:19.409Z,26.50
2024-03-13T14:50:58.685Z,31.60
2024-03-13T14:53:25.434Z,32.20
2024-03-13T14:55:52.173Z,32.10
2024-03-13T14:58:18.815Z,30.70
2024-03-13T15:00:45.774Z,33.60
2024-03-13T15:03:12.568Z,36.90
2024-03-13T15:05:42.556Z,30.00
2024-03-13T15:08:09.400Z,31.90
2024-03-13T15:10:36.132Z,32.10
2024-03-13T15:13:02.998Z,35.90
2024-03-13T15:15:30.070Z,30.70
2024-03-13T15:17:57.011Z,33.00
2024-03-13T15:20:23.841Z,30.90
2024-03-13T15:22:50.584Z,35.20
2024-03-13T15:25:17.235Z,33.60
2024-03-13T15:27:43.979Z,36.30
2024-03-13T15:30:14.603Z,37.80
2024-03-13T15:32:43.489Z,40.20
2024-03-13T15:35:10.474Z,54.10
2024-03-13T15:37:37.418Z,38.00
2024-03-13T15:40:04.889Z,47.20
2024-03-13T15:42:31.658Z,44.10
2024-03-13T15:44:58.545Z,36.30
2024-03-13T15:47:25.323Z,47.50
2024-03-13T15:49:51.967Z,42.00
2024-03-13T15:52:18.925Z,43.00
2024-03-13T15:54:45.672Z,52.30
2024-03-13T15:57:12.479Z,49.70
2024-03-13T15:59:39.430Z,52.40
2024-03-13T16:02:06.534Z,88.20
2024-03-13T16:04:33.271Z,91.70
2024-03-13T16:07:00.640Z,68.90
2024-03-13T16:09:27.403Z,81.50
2024-03-13T16:11:54.360Z,56.50
2024-03-13T16:14:21.079Z,82.80
2024-03-13T16:16:47.921Z,133.70
2024-03-13T16:19:14.671Z,59.90
2024-03-13T16:21:41.733Z,61.30
2024-03-13T16:24:08.446Z,44.40
2024-03-13T16:26:35.218Z,43.10
2024-03-13T16:29:01.870Z,45.90
2024-03-13T16:31:28.533Z,37.30
2024-03-13T16:33:55.308Z,39.50
2024-03-13T16:36:27.355Z,33.30
2024-03-13T16:38:54.164Z,39.40
2024-03-13T16:41:21.076Z,45.80
2024-03-13T16:43:47.793Z,65.50
2024-03-13T16:46:14.658Z,130.70
2024-03-13T16:48:41.489Z,142.10
2024-03-13T16:51:08.441Z,78.70
2024-03-13T16:53:35.490Z,44.80
2024-03-13T16:56:02.834Z,97.20
2024-03-13T16:58:30.678Z,46.00
2024-03-13T17:00:57.641Z,51.10
2024-03-13T17:03:24.749Z,57.90
2024-03-13T17:05:51.642Z,43.00
2024-03-13T17:08:18.297Z,43.70
2024-03-13T17:10:45.107Z,44.10
2024-03-13T17:13:11.854Z,44.20
2024-03-13T17:15:38.592Z,46.00
2024-03-13T17:18:05.753Z,60.00
2024-03-13T17:20:32.607Z,44.00
2024-03-13T17:22:59.267Z,41.80
2024-03-13T17:25:25.989Z,52.10
2024-03-13T17:27:52.753Z,72.50
2024-03-13T17:30:19.558Z,103.80
2024-03-13T17:32:46.436Z,63.30
2024-03-13T17:35:14.867Z,99.90
2024-03-13T17:37:41.953Z,101.80
2024-03-13T17:40:11.841Z,92.70
2024-03-13T17:42:39.859Z,99.60
2024-03-13T17:45:07.914Z,82.10
2024-03-13T17:47:35.983Z,84.90
2024-03-13T17:50:02.738Z,74.90
2024-03-13T17:52:29.563Z,75.60
2024-03-13T17:54:56.132Z,78.50
2024-03-13T17:57:22.962Z,79.80
2024-03-13T17:59:49.899Z,75.80
2024-03-13T18:02:16.908Z,67.70
2024-03-13T18:04:43.709Z,63.20
2024-03-13T18:07:10.558Z,67.00
2024-03-13T18:09:37.321Z,64.80
2024-03-13T18:12:04.912Z,61.90
2024-03-13T18:14:32.918Z,59.30
2024-03-13T18:17:00.121Z,60.40
2024-03-13T18:19:26.762Z,64.80
2024-03-13T18:21:53.922Z,60.80
2024-03-13T18:24:21.011Z,63.70
2024-03-13T18:26:47.945Z,76.40
2024-03-13T18:29:14.798Z,72.10
2024-03-13T18:31:41.550Z,64.50
2024-03-13T18:34:08.727Z,61.30
2024-03-13T18:36:35.851Z,70.90
2024-03-13T18:39:02.985Z,64.50
2024-03-13T18:41:30.104Z,67.60
2024-03-13T18:43:56.805Z,108.50
2024-03-13T18:46:23.686Z,106.10
2024-03-13T18:48:50.438Z,129.20
2024-03-13T18:51:17.910Z,115.60
2024-03-13T18:53:44.793Z,71.20
2024-03-13T18:56:11.577Z,131.10
2024-03-13T18:58:38.502Z,113.30
2024-03-13T19:01:05.495Z,101.00
2024-03-13T19:03:32.253Z,102.40
2024-03-13T19:05:59.123Z,71.20
2024-03-13T19:08:25.812Z,128.40
2024-03-13T19:10:52.672Z,99.40
2024-03-13T19:13:19.407Z,72.10
2024-03-13T19:15:46.162Z,68.70
2024-03-13T19:18:15.107Z,64.70
2024-03-13T19:20:41.935Z,107.40
2024-03-13T19:23:08.653Z,47.10
2024-03-13T19:25:35.843Z,72.60
2024-03-13T19:28:03.461Z,35.10
2024-03-13T19:30:30.480Z,37.40
2024-03-13T19:32:57.563Z,43.00
2024-03-13T19:35:24.449Z,37.90
2024-03-13T19:37:51.204Z,38.50
2024-03-13T19:40:17.942Z,40.40
2024-03-13T19:42:45.104Z,36.50
2024-03-13T19:45:11.871Z,56.40
2024-03-13T19:47:38.723Z,44.00
2024-03-13T19:50:05.961Z,42.10
2024-03-13T19:52:32.714Z,48.30
2024-03-13T19:54:59.764Z,69.20
2024-03-13T19:57:26.539Z,40.20
2024-03-13T19:59:53.426Z,47.00
2024-03-13T20:02:20.059Z,67.90
2024-03-13T20:04:46.701Z,78.00
2024-03-13T20:07:13.501Z,57.50
2024-03-13T20:09:40.477Z,57.20
2024-03-13T20:12:07.339Z,61.00
2024-03-13T20:14:34.261Z,38.60
2024-03-13T20:17:00.917Z,36.40
2024-03-13T20:19:27.659Z,43.40
2024-03-13T20:21:54.407Z,43.20
2024-03-13T20:24:21.212Z,42.80
2024-03-13T20:26:48.041Z,45.30
2024-03-13T20:29:14.870Z,41.30
2024-03-13T20:31:41.813Z,45.50
2024-03-13T20:34:08.529Z,48.70
2024-03-13T20:36:35.214Z,39.30
2024-03-13T20:39:02.019Z,38.20
2024-03-13T20:41:28.815Z,56.30
2024-03-13T20:43:55.870Z,49.00
2024-03-13T20:46:22.527Z,42.70
2024-03-13T20:48:49.498Z,65.60
2024-03-13T20:51:16.541Z,41.60
2024-03-13T20:53:43.434Z,46.40
2024-03-13T20:56:10.937Z,43.70
2024-03-13T20:58:37.683Z,34.20
2024-03-13T21:01:04.558Z,40.50
2024-03-13T21:03:31.407Z,42.40
2024-03-13T21:05:58.176Z,40.50
2024-03-13T21:08:24.983Z,39.20
2024-03-13T21:10:51.624Z,36.30
2024-03-13T21:13:18.578Z,44.20
2024-03-13T21:15:50.196Z,45.10
2024-03-13T21:18:23.758Z,45.20
2024-03-13T21:20:50.508Z,50.90
2024-03-13T21:23:17.139Z,58.70
2024-03-13T21:25:43.889Z,57.30
2024-03-13T21:28:10.660Z,57.20
2024-03-13T21:30:37.421Z,63.50
2024-03-13T21:33:04.868Z,59.80
2024-03-13T21:35:31.726Z,58.10
2024-03-13T21:37:58.471Z,51.40
2024-03-13T21:40:26.293Z,43.90
2024-03-13T21:42:52.985Z,42.00
2024-03-13T21:45:19.876Z,46.90
2024-03-13T21:47:46.999Z,49.50
2024-03-13T21:50:13.964Z,52.50
2024-03-13T21:52:41.112Z,48.10
2024-03-13T21:55:08.680Z,41.70
2024-03-13T21:57:35.472Z,50.30
2024-03-13T22:00:02.370Z,52.80
2024-03-13T22:02:29.436Z,50.70
2024-03-13T22:04:56.192Z,51.30
2024-03-13T22:07:23.031Z,61.20
2024-03-13T22:09:49.778Z,59.90
2024-03-13T22:12:16.464Z,54.80
2024-03-13T22:14:44.571Z,52.30
2024-03-13T22:17:11.633Z,52.60
2024-03-13T22:19:38.418Z,57.60
2024-03-13T22:22:05.317Z,52.70
2024-03-13T22:24:31.953Z,51.80
2024-03-13T22:26:58.993Z,49.90
2024-03-13T22:29:25.812Z,49.90
2024-03-13T22:31:52.605Z,50.10
2024-03-13T22:34:19.411Z,64.50
2024-03-13T22:36:46.151Z,48.90
2024-03-13T22:39:13.016Z,46.30
2024-03-13T22:41:43.498Z,40.70
2024-03-13T22:44:10.307Z,50.50
2024-03-13T22:46:37.912Z,42.20
2024-03-13T22:49:04.793Z,49.10
2024-03-13T22:51:31.674Z,55.80
2024-03-13T22:53:58.439Z,49.90
2024-03-13T22:56:26.389Z,42.60
2024-03-13T22:58:53.846Z,53.80
2024-03-13T23:01:20.610Z,57.00
2024-03-13T23:03:47.426Z,58.30
2024-03-13T23:06:14.167Z,48.60
2024-03-13T23:08:40.892Z,59.60
2024-03-13T23:11:07.600Z,51.60
2024-03-13T23:13:34.710Z,68.90
2024-03-13T23:16:02.798Z,53.80
2024-03-13T23:18:29.645Z,60.80
2024-03-13T23:20:56.702Z,68.30
2024-03-13T23:23:23.538Z,69.10
2024-03-13T23:25:50.405Z,50.30
2024-03-13T23:28:17.127Z,52.40
2024-03-13T23:30:43.715Z,47.20
2024-03-13T23:33:10.758Z,53.70
2024-03-13T23:35:37.752Z,45.80
2024-03-13T23:38:04.704Z,48.20
2024-03-13T23:40:31.473Z,45.50
2024-03-13T23:42:58.194Z,49.50
2024-03-13T23:45:24.953Z,51.10
2024-03-13T23:47:51.758Z,45.20
2024-03-13T23:50:18.548Z,51.40
2024-03-13T23:52:45.279Z,53.60
2024-03-13T23:55:12.456Z,54.30
2024-03-13T23:57:39.451Z,57.80
